sensor_id;sensor_type;location;lat;lon;timestamp;P1;durP1;ratioP1;P2;durP2;ratioP2
7931;SDS011;4011;49.424;10.894;2023-03-24T00:02:50;5.22;;;2.80;;
7931;SDS011;4011;49.424;10.894;2023-03-24T00:08:12;4.53;;;2.80;;
7931;SDS011;4011;49.424;10.894;2023-03-24T00:13:35;5.30;;;2.58;;
7931;SDS011;4011;49.424;10.894;2023-03-24T00:18:57;4.25;;;2.70;;
7931;SDS011;4011;49.424;10.894;2023-03-24T00:24:20;5.32;;;2.50;;
7931;SDS011;4011;49.424;10.894;2023-03-24T00:29:43;4.63;;;2.80;;
7931;SDS011;4011;49.424;10.894;2023-03-24T00:35:05;3.88;;;2.92;;
7931;SDS011;4011;49.424;10.894;2023-03-24T00:40:28;4.00;;;2.47;;
7931;SDS011;4011;49.424;10.894;2023-03-24T00:45:56;3.63;;;2.30;;
7931;SDS011;4011;49.424;10.894;2023-03-24T00:51:17;3.83;;;2.47;;
7931;SDS011;4011;49.424;10.894;2023-03-24T00:56:39;4.53;;;2.60;;
7931;SDS011;4011;49.424;10.894;2023-03-24T01:02:04;3.25;;;2.25;;
7931;SDS011;4011;49.424;10.894;2023-03-24T01:07:26;4.80;;;2.80;;
7931;SDS011;4011;49.424;10.894;2023-03-24T01:12:49;4.47;;;2.50;;
7931;SDS011;4011;49.424;10.894;2023-03-24T01:18:12;4.45;;;2.50;;
7931;SDS011;4011;49.424;10.894;2023-03-24T01:23:34;3.50;;;2.40;;
7931;SDS011;4011;49.424;10.894;2023-03-24T01:28:56;3.53;;;1.95;;
7931;SDS011;4011;49.424;10.894;2023-03-24T01:34:19;5.03;;;2.38;;
7931;SDS011;4011;49.424;10.894;2023-03-24T01:39:40;3.78;;;2.42;;
7931;SDS011;4011;49.424;10.894;2023-03-24T01:50:40;4.05;;;2.42;;
7931;SDS011;4011;49.424;10.894;2023-03-24T01:56:02;3.55;;;2.40;;
7931;SDS011;4011;49.424;10.894;2023-03-24T02:01:26;3.15;;;2.25;;
7931;SDS011;4011;49.424;10.894;2023-03-24T02:06:51;4.13;;;2.33;;
7931;SDS011;4011;49.424;10.894;2023-03-24T02:12:13;3.72;;;2.30;;
7931;SDS011;4011;49.424;10.894;2023-03-24T02:17:39;3.80;;;2.30;;
7931;SDS011;4011;49.424;10.894;2023-03-24T02:23:08;3.42;;;2.22;;
7931;SDS011;4011;49.424;10.894;2023-03-24T02:28:36;3.25;;;2.17;;
7931;SDS011;4011;49.424;10.894;2023-03-24T02:39:59;3.10;;;2.00;;
7931;SDS011;4011;49.424;10.894;2023-03-24T02:45:29;3.50;;;2.30;;
7931;SDS011;4011;49.424;10.894;2023-03-24T02:50:55;3.65;;;2.20;;
7931;SDS011;4011;49.424;10.894;2023-03-24T02:56:21;3.08;;;2.20;;
7931;SDS011;4011;49.424;10.894;2023-03-24T03:01:47;2.75;;;1.90;;
7931;SDS011;4011;49.424;10.894;2023-03-24T03:07:13;3.67;;;2.42;;
7931;SDS011;4011;49.424;10.894;2023-03-24T03:12:37;3.10;;;2.10;;
7931;SDS011;4011;49.424;10.894;2023-03-24T03:18:20;3.30;;;2.20;;
7931;SDS011;4011;49.424;10.894;2023-03-24T03:23:50;3.50;;;2.00;;
7931;SDS011;4011;49.424;10.894;2023-03-24T03:29:23;3.60;;;2.10;;
7931;SDS011;4011;49.424;10.894;2023-03-24T03:34:47;3.45;;;2.20;;
7931;SDS011;4011;49.424;10.894;2023-03-24T03:40:13;3.00;;;2.03;;
7931;SDS011;4011;49.424;10.894;2023-03-24T03:45:39;4.05;;;2.10;;
7931;SDS011;4011;49.424;10.894;2023-03-24T03:51:01;3.40;;;2.30;;
7931;SDS011;4011;49.424;10.894;2023-03-24T03:56:24;3.42;;;2.15;;
7931;SDS011;4011;49.424;10.894;2023-03-24T04:01:48;3.72;;;2.20;;
7931;SDS011;4011;49.424;10.894;2023-03-24T04:07:11;2.72;;;1.95;;
7931;SDS011;4011;49.424;10.894;2023-03-24T04:12:45;3.22;;;2.10;;
7931;SDS011;4011;49.424;10.894;2023-03-24T04:23:50;3.50;;;2.20;;
7931;SDS011;4011;49.424;10.894;2023-03-24T04:29:17;3.50;;;2.10;;
7931;SDS011;4011;49.424;10.894;2023-03-24T04:34:42;3.60;;;1.98;;
7931;SDS011;4011;49.424;10.894;2023-03-24T04:40:07;2.85;;;1.95;;
7931;SDS011;4011;49.424;10.894;2023-03-24T04:45:30;3.30;;;2.30;;
7931;SDS011;4011;49.424;10.894;2023-03-24T04:50:56;3.60;;;2.17;;
7931;SDS011;4011;49.424;10.894;2023-03-24T04:56:26;3.28;;;1.98;;
7931;SDS011;4011;49.424;10.894;2023-03-24T05:01:48;3.25;;;2.13;;
7931;SDS011;4011;49.424;10.894;2023-03-24T05:07:12;2.75;;;1.88;;
7931;SDS011;4011;49.424;10.894;2023-03-24T05:12:46;3.85;;;1.88;;
7931;SDS011;4011;49.424;10.894;2023-03-24T05:24:19;3.00;;;2.00;;
7931;SDS011;4011;49.424;10.894;2023-03-24T05:29:52;3.17;;;2.13;;
7931;SDS011;4011;49.424;10.894;2023-03-24T05:35:21;3.70;;;1.95;;
7931;SDS011;4011;49.424;10.894;2023-03-24T05:51:16;3.75;;;2.60;;
7931;SDS011;4011;49.424;10.894;2023-03-24T06:02:39;3.45;;;2.40;;
7931;SDS011;4011;49.424;10.894;2023-03-24T06:25:56;3.90;;;3.58;;
7931;SDS011;4011;49.424;10.894;2023-03-24T06:31:32;4.35;;;2.40;;
7931;SDS011;4011;49.424;10.894;2023-03-24T06:36:54;3.83;;;2.65;;
7931;SDS011;4011;49.424;10.894;2023-03-24T06:48:24;5.18;;;3.25;;
7931;SDS011;4011;49.424;10.894;2023-03-24T06:54:07;3.50;;;2.50;;
7931;SDS011;4011;49.424;10.894;2023-03-24T07:29:28;3.75;;;3.38;;
7931;SDS011;4011;49.424;10.894;2023-03-24T07:35:30;4.95;;;2.50;;
7931;SDS011;4011;49.424;10.894;2023-03-24T07:46:51;3.38;;;2.67;;
7931;SDS011;4011;49.424;10.894;2023-03-24T07:52:23;4.03;;;3.38;;
7931;SDS011;4011;49.424;10.894;2023-03-24T08:27:16;3.55;;;3.05;;
7931;SDS011;4011;49.424;10.894;2023-03-24T08:45:00;4.30;;;2.90;;
7931;SDS011;4011;49.424;10.894;2023-03-24T08:51:07;4.35;;;3.88;;
7931;SDS011;4011;49.424;10.894;2023-03-24T08:56:21;6.40;;;2.65;;
7931;SDS011;4011;49.424;10.894;2023-03-24T09:01:48;3.70;;;3.17;;
7931;SDS011;4011;49.424;10.894;2023-03-24T09:13:42;4.20;;;2.88;;
7931;SDS011;4011;49.424;10.894;2023-03-24T09:31:56;4.30;;;2.70;;
7931;SDS011;4011;49.424;10.894;2023-03-24T09:37:40;4.20;;;2.50;;
7931;SDS011;4011;49.424;10.894;2023-03-24T09:49:22;4.65;;;4.25;;
7931;SDS011;4011;49.424;10.894;2023-03-24T09:54:45;2.72;;;2.10;;
7931;SDS011;4011;49.424;10.894;2023-03-24T10:00:27;4.85;;;4.40;;
7931;SDS011;4011;49.424;10.894;2023-03-24T10:05:50;3.80;;;2.63;;
7931;SDS011;4011;49.424;10.894;2023-03-24T10:16:52;4.03;;;3.63;;
7931;SDS011;4011;49.424;10.894;2023-03-24T10:22:30;4.75;;;2.47;;
7931;SDS011;4011;49.424;10.894;2023-03-24T10:27:53;3.38;;;2.10;;
7931;SDS011;4011;49.424;10.894;2023-03-24T11:38:34;2.95;;;2.00;;
7931;SDS011;4011;49.424;10.894;2023-03-24T11:44:04;3.10;;;2.50;;
7931;SDS011;4011;49.424;10.894;2023-03-24T11:49:29;3.05;;;2.30;;
7931;SDS011;4011;49.424;10.894;2023-03-24T11:54:54;3.75;;;2.50;;
7931;SDS011;4011;49.424;10.894;2023-03-24T12:00:17;3.38;;;2.30;;
7931;SDS011;4011;49.424;10.894;2023-03-24T12:05:41;3.05;;;2.20;;
7931;SDS011;4011;49.424;10.894;2023-03-24T12:11:12;3.25;;;2.00;;
7931;SDS011;4011;49.424;10.894;2023-03-24T12:16:42;3.65;;;2.20;;
7931;SDS011;4011;49.424;10.894;2023-03-24T12:22:15;2.90;;;1.98;;
7931;SDS011;4011;49.424;10.894;2023-03-24T12:27:46;3.03;;;2.00;;
7931;SDS011;4011;49.424;10.894;2023-03-24T12:33:21;2.90;;;1.90;;
7931;SDS011;4011;49.424;10.894;2023-03-24T12:38:51;3.03;;;2.22;;
7931;SDS011;4011;49.424;10.894;2023-03-24T12:50:21;4.35;;;2.00;;
7931;SDS011;4011;49.424;10.894;2023-03-24T12:55:48;3.35;;;1.90;;
7931;SDS011;4011;49.424;10.894;2023-03-24T13:01:16;3.45;;;1.90;;
7931;SDS011;4011;49.424;10.894;2023-03-24T13:06:42;3.58;;;1.90;;
7931;SDS011;4011;49.424;10.894;2023-03-24T13:12:11;3.42;;;2.00;;
7931;SDS011;4011;49.424;10.894;2023-03-24T13:17:33;4.75;;;2.20;;
7931;SDS011;4011;49.424;10.894;2023-03-24T13:22:58;3.15;;;1.80;;
7931;SDS011;4011;49.424;10.894;2023-03-24T13:28:21;2.78;;;1.80;;
7931;SDS011;4011;49.424;10.894;2023-03-24T13:33:45;3.15;;;1.77;;
7931;SDS011;4011;49.424;10.894;2023-03-24T13:39:10;2.85;;;1.73;;
7931;SDS011;4011;49.424;10.894;2023-03-24T13:44:37;3.88;;;1.70;;
7931;SDS011;4011;49.424;10.894;2023-03-24T13:50:09;2.42;;;1.58;;
7931;SDS011;4011;49.424;10.894;2023-03-24T13:55:47;3.00;;;1.90;;
7931;SDS011;4011;49.424;10.894;2023-03-24T14:01:34;2.85;;;1.70;;
7931;SDS011;4011;49.424;10.894;2023-03-24T14:18:47;2.80;;;1.70;;
7931;SDS011;4011;49.424;10.894;2023-03-24T14:24:32;2.60;;;1.70;;
7931;SDS011;4011;49.424;10.894;2023-03-24T14:30:14;3.03;;;1.70;;
7931;SDS011;4011;49.424;10.894;2023-03-24T14:35:51;3.13;;;1.60;;
7931;SDS011;4011;49.424;10.894;2023-03-24T14:41:28;2.13;;;1.67;;
7931;SDS011;4011;49.424;10.894;2023-03-24T14:47:09;2.83;;;1.60;;
7931;SDS011;4011;49.424;10.894;2023-03-24T14:52:52;3.65;;;1.70;;
7931;SDS011;4011;49.424;10.894;2023-03-24T14:58:29;2.72;;;1.60;;
7931;SDS011;4011;49.424;10.894;2023-03-24T15:04:07;2.40;;;1.60;;
7931;SDS011;4011;49.424;10.894;2023-03-24T15:09:50;2.92;;;1.67;;
7931;SDS011;4011;49.424;10.894;2023-03-24T15:15:23;2.58;;;1.50;;
7931;SDS011;4011;49.424;10.894;2023-03-24T15:20:50;2.97;;;1.80;;
7931;SDS011;4011;49.424;10.894;2023-03-24T15:26:27;2.72;;;1.60;;
7931;SDS011;4011;49.424;10.894;2023-03-24T15:32:09;3.05;;;1.80;;
7931;SDS011;4011;49.424;10.894;2023-03-24T15:37:47;2.67;;;1.70;;
7931;SDS011;4011;49.424;10.894;2023-03-24T15:43:24;3.28;;;1.83;;
7931;SDS011;4011;49.424;10.894;2023-03-24T15:48:54;2.67;;;1.67;;
7931;SDS011;4011;49.424;10.894;2023-03-24T15:54:40;3.25;;;1.50;;
7931;SDS011;4011;49.424;10.894;2023-03-24T16:00:05;2.45;;;1.60;;
7931;SDS011;4011;49.424;10.894;2023-03-24T16:05:36;3.13;;;1.80;;
7931;SDS011;4011;49.424;10.894;2023-03-24T16:11:10;2.88;;;1.70;;
7931;SDS011;4011;49.424;10.894;2023-03-24T16:16:36;2.97;;;1.80;;
7931;SDS011;4011;49.424;10.894;2023-03-24T16:22:03;2.53;;;1.63;;
7931;SDS011;4011;49.424;10.894;2023-03-24T16:27:26;2.47;;;1.50;;
7931;SDS011;4011;49.424;10.894;2023-03-24T16:32:49;3.03;;;1.88;;
7931;SDS011;4011;49.424;10.894;2023-03-24T16:38:11;2.80;;;1.70;;
7931;SDS011;4011;49.424;10.894;2023-03-24T16:43:36;2.60;;;1.70;;
7931;SDS011;4011;49.424;10.894;2023-03-24T16:49:02;2.00;;;1.40;;
7931;SDS011;4011;49.424;10.894;2023-03-24T16:54:24;2.97;;;1.73;;
7931;SDS011;4011;49.424;10.894;2023-03-24T16:59:46;2.42;;;1.80;;
7931;SDS011;4011;49.424;10.894;2023-03-24T17:05:11;3.20;;;1.77;;
7931;SDS011;4011;49.424;10.894;2023-03-24T17:10:37;2.65;;;1.60;;
7931;SDS011;4011;49.424;10.894;2023-03-24T17:16:02;2.80;;;1.70;;
7931;SDS011;4011;49.424;10.894;2023-03-24T17:21:25;2.80;;;1.80;;
7931;SDS011;4011;49.424;10.894;2023-03-24T17:26:47;3.90;;;1.90;;
7931;SDS011;4011;49.424;10.894;2023-03-24T17:32:09;3.08;;;1.85;;
7931;SDS011;4011;49.424;10.894;2023-03-24T17:37:32;3.05;;;1.70;;
7931;SDS011;4011;49.424;10.894;2023-03-24T17:42:53;3.20;;;2.00;;
7931;SDS011;4011;49.424;10.894;2023-03-24T17:48:15;3.40;;;1.60;;
7931;SDS011;4011;49.424;10.894;2023-03-24T17:53:38;4.13;;;2.10;;
7931;SDS011;4011;49.424;10.894;2023-03-24T17:59:00;5.07;;;1.90;;
7931;SDS011;4011;49.424;10.894;2023-03-24T18:04:23;3.80;;;1.70;;
7931;SDS011;4011;49.424;10.894;2023-03-24T18:09:46;4.18;;;2.10;;
7931;SDS011;4011;49.424;10.894;2023-03-24T18:15:08;3.45;;;1.80;;
7931;SDS011;4011;49.424;10.894;2023-03-24T18:20:30;3.20;;;2.00;;
7931;SDS011;4011;49.424;10.894;2023-03-24T18:26:00;3.63;;;1.92;;
7931;SDS011;4011;49.424;10.894;2023-03-24T18:31:23;3.45;;;1.73;;
7931;SDS011;4011;49.424;10.894;2023-03-24T18:36:46;3.85;;;1.90;;
7931;SDS011;4011;49.424;10.894;2023-03-24T18:42:10;4.55;;;2.13;;
7931;SDS011;4011;49.424;10.894;2023-03-24T18:47:32;3.85;;;2.00;;
7931;SDS011;4011;49.424;10.894;2023-03-24T18:52:53;4.07;;;1.88;;
7931;SDS011;4011;49.424;10.894;2023-03-24T18:58:17;3.25;;;1.80;;
7931;SDS011;4011;49.424;10.894;2023-03-24T19:03:41;3.22;;;1.80;;
7931;SDS011;4011;49.424;10.894;2023-03-24T19:09:04;3.53;;;1.83;;
7931;SDS011;4011;49.424;10.894;2023-03-24T19:14:27;4.72;;;1.90;;
7931;SDS011;4011;49.424;10.894;2023-03-24T19:20:06;3.38;;;1.85;;
7931;SDS011;4011;49.424;10.894;2023-03-24T19:31:37;3.33;;;1.90;;
7931;SDS011;4011;49.424;10.894;2023-03-24T19:37:09;3.92;;;1.90;;
7931;SDS011;4011;49.424;10.894;2023-03-24T19:42:33;5.43;;;2.00;;
7931;SDS011;4011;49.424;10.894;2023-03-24T19:48:00;4.53;;;2.00;;
7931;SDS011;4011;49.424;10.894;2023-03-24T19:53:23;4.53;;;1.90;;
7931;SDS011;4011;49.424;10.894;2023-03-24T19:58:46;5.35;;;2.00;;
7931;SDS011;4011;49.424;10.894;2023-03-24T20:04:09;3.58;;;1.90;;
7931;SDS011;4011;49.424;10.894;2023-03-24T20:09:31;4.35;;;1.90;;
7931;SDS011;4011;49.424;10.894;2023-03-24T20:14:53;4.82;;;2.10;;
7931;SDS011;4011;49.424;10.894;2023-03-24T20:20:16;4.32;;;1.90;;
7931;SDS011;4011;49.424;10.894;2023-03-24T20:25:39;4.78;;;1.90;;
7931;SDS011;4011;49.424;10.894;2023-03-24T20:31:01;3.63;;;2.08;;
7931;SDS011;4011;49.424;10.894;2023-03-24T20:36:24;3.20;;;2.13;;
7931;SDS011;4011;49.424;10.894;2023-03-24T20:41:46;4.38;;;1.85;;
7931;SDS011;4011;49.424;10.894;2023-03-24T20:47:08;3.47;;;1.83;;
7931;SDS011;4011;49.424;10.894;2023-03-24T20:52:31;2.97;;;1.80;;
7931;SDS011;4011;49.424;10.894;2023-03-24T20:57:54;3.53;;;1.90;;
7931;SDS011;4011;49.424;10.894;2023-03-24T21:03:16;4.35;;;2.10;;
7931;SDS011;4011;49.424;10.894;2023-03-24T21:08:39;4.10;;;1.83;;
7931;SDS011;4011;49.424;10.894;2023-03-24T21:14:01;3.42;;;1.98;;
7931;SDS011;4011;49.424;10.894;2023-03-24T21:19:23;3.92;;;1.90;;
7931;SDS011;4011;49.424;10.894;2023-03-24T21:24:46;3.40;;;1.80;;
7931;SDS011;4011;49.424;10.894;2023-03-24T21:30:08;3.47;;;1.95;;
7931;SDS011;4011;49.424;10.894;2023-03-24T21:35:30;4.78;;;2.03;;
7931;SDS011;4011;49.424;10.894;2023-03-24T21:40:56;3.88;;;1.85;;
7931;SDS011;4011;49.424;10.894;2023-03-24T21:46:18;3.25;;;2.22;;
7931;SDS011;4011;49.424;10.894;2023-03-24T21:51:49;3.33;;;2.10;;
7931;SDS011;4011;49.424;10.894;2023-03-24T21:57:15;3.20;;;2.00;;
7931;SDS011;4011;49.424;10.894;2023-03-24T22:02:37;3.33;;;2.30;;
7931;SDS011;4011;49.424;10.894;2023-03-24T22:07:58;3.72;;;2.40;;
7931;SDS011;4011;49.424;10.894;2023-03-24T22:13:24;4.32;;;2.45;;
7931;SDS011;4011;49.424;10.894;2023-03-24T22:18:45;4.10;;;2.35;;
7931;SDS011;4011;49.424;10.894;2023-03-24T22:24:07;4.30;;;2.25;;
7931;SDS011;4011;49.424;10.894;2023-03-24T22:29:30;3.33;;;2.08;;
7931;SDS011;4011;49.424;10.894;2023-03-24T22:34:51;3.63;;;2.35;;
7931;SDS011;4011;49.424;10.894;2023-03-24T22:40:13;3.80;;;2.20;;
7931;SDS011;4011;49.424;10.894;2023-03-24T22:45:36;3.17;;;2.30;;
7931;SDS011;4011;49.424;10.894;2023-03-24T22:50:57;3.95;;;2.20;;
7931;SDS011;4011;49.424;10.894;2023-03-24T22:56:19;3.33;;;2.08;;
7931;SDS011;4011;49.424;10.894;2023-03-24T23:01:42;3.13;;;1.92;;
7931;SDS011;4011;49.424;10.894;2023-03-24T23:07:03;3.40;;;2.10;;
7931;SDS011;4011;49.424;10.894;2023-03-24T23:12:26;3.75;;;2.00;;
7931;SDS011;4011;49.424;10.894;2023-03-24T23:17:49;2.85;;;2.00;;
7931;SDS011;4011;49.424;10.894;2023-03-24T23:23:11;3.83;;;2.10;;
7931;SDS011;4011;49.424;10.894;2023-03-24T23:28:34;3.60;;;1.90;;
7931;SDS011;4011;49.424;10.894;2023-03-24T23:33:57;3.80;;;2.00;;
7931;SDS011;4011;49.424;10.894;2023-03-24T23:39:19;3.70;;;2.05;;
7931;SDS011;4011;49.424;10.894;2023-03-24T23:44:40;4.05;;;1.98;;
7931;SDS011;4011;49.424;10.894;2023-03-24T23:50:04;2.95;;;1.88;;
7931;SDS011;4011;49.424;10.894;2023-03-24T23:55:26;2.90;;;1.77;;
